Time;durP1;ratioP1;P1;durP2;ratioP2;P2;SDS_P1;SDS_P2;PMS_P1;PMS_P2;Temp;Humidity;BMP_temperature;BMP_pressure;BME280_temperature;BME280_humidity;BME280_pressure;Samples;Min_cycle;Max_cycle;Signal;HPM_P1;HPM_P2
2022/07/22 15:32:08;;;;;;;11.63;6.80;;;;;;;;;;6185524;23;20024;-83
2022/07/22 15:34:34;;;;;;;8.32;6.13;;;;;;;;;;6189900;23;20079;-89
2022/07/22 15:36:59;;;;;;;9.10;6.43;;;;;;;;;;6189098;23;20005;-87
2022/07/22 15:39:25;;;;;;;6.28;5.68;;;;;;;;;;6205889;23;20092;-84
2022/07/22 15:41:50;;;;;;;9.63;6.30;;;;;;;;;;6186708;23;20005;-90
2022/07/22 15:44:16;;;;;;;8.98;6.20;;;;;;;;;;6160518;23;20040;-85
2022/07/22 15:46:41;;;;;;;10.50;6.45;;;;;;;;;;6187134;23;20008;-91
2022/07/22 15:49:07;;;;;;;7.38;6.63;;;;;;;;;;6186674;23;20008;-84
2022/07/22 15:51:33;;;;;;;7.28;6.57;;;;;;;;;;6184923;23;20001;-88
2022/07/22 15:53:58;;;;;;;7.40;6.32;;;;;;;;;;6187077;23;20385;-89
2022/07/22 15:56:24;;;;;;;6.53;5.93;;;;;;;;;;6185007;23;20001;-89
2022/07/22 16:01:33;;;;;;;9.25;6.68;;;;;;;;;;6186847;23;20044;-89
2022/07/22 16:03:59;;;;;;;7.22;6.50;;;;;;;;;;6186979;23;20005;-87
2022/07/22 16:06:24;;;;;;;8.15;7.35;;;;;;;;;;6187088;23;20063;-87
2022/07/22 16:08:50;;;;;;;7.40;6.70;;;;;;;;;;6186629;23;20008;-89
2022/07/22 16:11:16;;;;;;;7.05;6.55;;;;;;;;;;6187167;23;20005;-87
2022/07/22 16:13:41;;;;;;;8.95;7.25;;;;;;;;;;6164715;23;20015;-87
2022/07/22 16:16:07;;;;;;;11.13;7.50;;;;;;;;;;6190365;23;20056;-87
2022/07/22 16:18:32;;;;;;;7.45;6.47;;;;;;;;;;6187378;23;20033;-86
2022/07/22 16:20:58;;;;;;;7.03;6.30;;;;;;;;;;6187004;23;20081;-88
2022/07/22 16:23:23;;;;;;;7.13;6.40;;;;;;;;;;6186769;23;20032;-87
2022/07/22 16:25:49;;;;;;;8.60;6.90;;;;;;;;;;6186605;23;20001;-86
2022/07/22 16:28:15;;;;;;;8.07;6.95;;;;;;;;;;6186958;23;20096;-89
2022/07/22 16:30:41;;;;;;;7.43;6.70;;;;;;;;;;6184676;23;20376;-86
2022/07/22 16:33:06;;;;;;;9.32;6.35;;;;;;;;;;6186659;23;20017;-85
2022/07/22 16:35:31;;;;;;;7.80;6.40;;;;;;;;;;6186357;23;20001;-87
2022/07/22 16:37:57;;;;;;;8.18;6.60;;;;;;;;;;6186475;23;20005;-88
2022/07/22 16:40:22;;;;;;;7.40;6.70;;;;;;;;;;6187025;23;20435;-89
2022/07/22 16:42:48;;;;;;;7.60;6.65;;;;;;;;;;6187336;23;20008;-89
2022/07/22 16:45:13;;;;;;;9.85;7.30;;;;;;;;;;6187198;23;20001;-85
2022/07/22 16:47:39;;;;;;;8.07;6.63;;;;;;;;;;6185849;23;20332;-88
2022/07/22 16:50:05;;;;;;;8.65;6.65;;;;;;;;;;6186928;23;20005;-87
2022/07/22 16:52:31;;;;;;;7.68;6.57;;;;;;;;;;6185363;23;20001;-84
2022/07/22 16:54:56;;;;;;;9.75;6.65;;;;;;;;;;6186713;23;20009;-89
2022/07/22 16:57:22;;;;;;;10.80;6.95;;;;;;;;;;6187018;23;20337;-88
2022/07/22 16:59:48;;;;;;;7.50;6.65;;;;;;;;;;6186901;23;20047;-88
2022/07/22 17:02:15;;;;;;;8.38;6.40;;;;;;;;;;6160458;23;20015;-88
2022/07/22 17:04:40;;;;;;;7.45;6.75;;;;;;;;;;6187579;23;20040;-89
2022/07/22 17:07:06;;;;;;;8.18;6.65;;;;;;;;;;6186961;23;20009;-87
2022/07/22 17:09:31;;;;;;;8.35;6.07;;;;;;;;;;6184920;23;20032;-88
2022/07/22 17:12:00;;;;;;;7.82;7.03;;;;;;;;;;6186175;23;20005;-88
2022/07/22 17:14:25;;;;;;;6.97;6.38;;;;;;;;;;6187021;23;20001;-92
2022/07/22 17:16:51;;;;;;;6.90;6.35;;;;;;;;;;6162316;23;20056;-91
2022/07/22 17:19:16;;;;;;;6.75;6.07;;;;;;;;;;6189012;23;20013;-86
2022/07/22 17:21:42;;;;;;;6.97;6.38;;;;;;;;;;6188793;23;20008;-83
2022/07/22 17:24:07;;;;;;;7.45;6.75;;;;;;;;;;6184474;23;20001;-92
2022/07/22 17:26:33;;;;;;;7.57;6.65;;;;;;;;;;6186689;23;20001;-87
2022/07/22 17:28:58;;;;;;;7.72;7.03;;;;;;;;;;6186725;23;20462;-83
2022/07/22 17:31:24;;;;;;;8.07;7.05;;;;;;;;;;6185729;23;20324;-82
2022/07/22 17:33:50;;;;;;;9.18;6.78;;;;;;;;;;6184017;23;20017;-83
2022/07/22 17:36:16;;;;;;;8.10;6.40;;;;;;;;;;6159326;23;20062;-88
2022/07/22 17:38:41;;;;;;;7.70;6.90;;;;;;;;;;6185641;23;20009;-89
2022/07/22 17:41:07;;;;;;;7.80;6.97;;;;;;;;;;6186181;23;20006;-88
2022/07/22 17:43:34;;;;;;;7.57;6.75;;;;;;;;;;6186607;23;20024;-91
2022/07/22 17:46:00;;;;;;;8.05;6.32;;;;;;;;;;6186092;23;20005;-91
2022/07/22 17:48:25;;;;;;;7.05;6.22;;;;;;;;;;6159376;23;20005;-86
2022/07/22 17:50:51;;;;;;;6.90;6.30;;;;;;;;;;6186819;23;20329;-87
2022/07/22 17:53:16;;;;;;;9.85;6.40;;;;;;;;;;6188620;23;20004;-83
2022/07/22 17:55:42;;;;;;;8.48;6.25;;;;;;;;;;6161938;23;20001;-89
2022/07/22 17:58:07;;;;;;;6.63;6.03;;;;;;;;;;6187647;23;20324;-92
2022/07/22 18:00:33;;;;;;;9.77;7.10;;;;;;;;;;6188499;23;19997;-90
2022/07/22 18:02:59;;;;;;;7.32;6.63;;;;;;;;;;6186905;23;20012;-83
2022/07/22 18:05:25;;;;;;;7.53;6.82;;;;;;;;;;6162769;23;20440;-83
2022/07/22 18:07:51;;;;;;;7.15;6.28;;;;;;;;;;6187899;23;20000;-82
2022/07/22 18:10:16;;;;;;;8.30;7.05;;;;;;;;;;6187530;23;20012;-85
2022/07/22 18:12:42;;;;;;;7.28;6.57;;;;;;;;;;6188061;23;20060;-84
2022/07/22 18:15:08;;;;;;;7.85;7.00;;;;;;;;;;6187695;23;20028;-83
2022/07/22 18:17:34;;;;;;;8.98;6.40;;;;;;;;;;6187598;23;20078;-83
2022/07/22 18:20:03;;;;;;;9.75;7.25;;;;;;;;;;6187435;23;20062;-84
2022/07/22 18:22:29;;;;;;;7.30;6.70;;;;;;;;;;6187636;23;20016;-84
2022/07/22 18:24:55;;;;;;;8.65;6.57;;;;;;;;;;6187329;23;20321;-84
2022/07/22 18:27:20;;;;;;;7.80;6.95;;;;;;;;;;6187733;23;20047;-83
2022/07/22 18:29:46;;;;;;;7.28;6.45;;;;;;;;;;6187514;23;20009;-87
2022/07/22 18:32:11;;;;;;;7.95;7.15;;;;;;;;;;6187887;23;20088;-90
2022/07/22 18:34:37;;;;;;;7.78;6.97;;;;;;;;;;6187092;23;20013;-86
2022/07/22 18:37:03;;;;;;;7.63;6.93;;;;;;;;;;6187809;23;20545;-92
2022/07/22 18:39:28;;;;;;;7.72;7.03;;;;;;;;;;6187450;23;20421;-87
2022/07/22 18:41:54;;;;;;;7.72;7.03;;;;;;;;;;6187949;23;20108;-87
2022/07/22 18:44:19;;;;;;;7.95;7.15;;;;;;;;;;6187831;23;20047;-85
2022/07/22 18:46:45;;;;;;;9.93;8.85;;;;;;;;;;6187706;23;20005;-89
2022/07/22 18:49:10;;;;;;;9.02;8.13;;;;;;;;;;6187941;23;20001;-91
2022/07/22 18:51:36;;;;;;;8.32;6.68;;;;;;;;;;6188228;23;20012;-89
2022/07/22 18:54:01;;;;;;;8.25;7.55;;;;;;;;;;6187369;23;20001;-87
2022/07/22 18:56:26;;;;;;;7.97;7.38;;;;;;;;;;6187366;23;20009;-87
2022/07/22 18:58:52;;;;;;;7.10;6.30;;;;;;;;;;6187070;23;20069;-88
2022/07/22 19:01:18;;;;;;;7.32;6.65;;;;;;;;;;6187020;23;20005;-84
2022/07/22 19:03:43;;;;;;;7.60;6.80;;;;;;;;;;6187095;23;20471;-85
2022/07/22 19:06:10;;;;;;;8.68;7.82;;;;;;;;;;6187172;23;20071;-85
2022/07/22 19:08:37;;;;;;;7.90;7.18;;;;;;;;;;6187067;23;20001;-86
2022/07/22 19:11:03;;;;;;;7.75;7.07;;;;;;;;;;6185551;23;20016;-87
2022/07/22 19:13:28;;;;;;;7.43;6.75;;;;;;;;;;6187095;23;20369;-86
2022/07/22 19:15:55;;;;;;;8.00;7.25;;;;;;;;;;6189226;23;20381;-87
2022/07/22 19:18:23;;;;;;;7.72;6.93;;;;;;;;;;6188508;23;20332;-87
2022/07/22 19:20:51;;;;;;;7.70;7.00;;;;;;;;;;6187032;23;20332;-85
2022/07/22 19:23:18;;;;;;;;;;;;;;;;;;6187403;23;20215;-85
2022/07/22 19:25:44;;;;;;;7.35;6.75;;;;;;;;;;6186899;23;19909;-86
2022/07/22 19:28:11;;;;;;;7.40;6.72;;;;;;;;;;6187047;23;20064;-85
2022/07/22 19:30:36;;;;;;;7.85;6.95;;;;;;;;;;6186729;23;20336;-85
2022/07/22 19:33:02;;;;;;;10.43;8.02;;;;;;;;;;6186777;23;20097;-85
2022/07/22 19:35:28;;;;;;;8.32;7.53;;;;;;;;;;6186747;23;20013;-85
2022/07/22 19:37:53;;;;;;;8.15;7.45;;;;;;;;;;6186517;23;20005;-86
2022/07/22 19:40:19;;;;;;;7.70;7.10;;;;;;;;;;6186711;23;20000;-84
2022/07/22 19:42:44;;;;;;;8.90;8.02;;;;;;;;;;6186724;23;20001;-87
2022/07/22 19:45:10;;;;;;;9.43;7.75;;;;;;;;;;6186617;23;20011;-85
2022/07/22 19:47:35;;;;;;;9.10;8.20;;;;;;;;;;6186898;23;20429;-85
2022/07/22 19:50:01;;;;;;;9.88;8.90;;;;;;;;;;6186580;23;19997;-86
2022/07/22 19:52:26;;;;;;;8.48;7.68;;;;;;;;;;6186589;23;20015;-86
2022/07/22 19:54:52;;;;;;;10.45;7.20;;;;;;;;;;6186453;23;20005;-86
2022/07/22 19:57:17;;;;;;;7.97;6.78;;;;;;;;;;6186491;23;20032;-86
2022/07/22 19:59:42;;;;;;;7.07;6.53;;;;;;;;;;6186779;23;20005;-85
2022/07/22 20:02:08;;;;;;;7.72;7.03;;;;;;;;;;6160147;23;20012;-86
2022/07/22 20:04:33;;;;;;;8.35;7.65;;;;;;;;;;6186540;23;20436;-86
2022/07/22 20:06:59;;;;;;;7.88;7.15;;;;;;;;;;6186519;23;20336;-86
2022/07/22 20:09:24;;;;;;;7.78;6.97;;;;;;;;;;6186368;23;20452;-86
2022/07/22 20:11:50;;;;;;;7.05;6.45;;;;;;;;;;6186369;23;20005;-86
2022/07/22 20:14:15;;;;;;;8.20;7.40;;;;;;;;;;6186135;23;20001;-86
2022/07/22 20:16:41;;;;;;;8.18;7.32;;;;;;;;;;6186458;23;20025;-86
2022/07/22 20:19:06;;;;;;;8.93;7.90;;;;;;;;;;6186532;23;20117;-85
2022/07/22 20:21:31;;;;;;;7.55;6.68;;;;;;;;;;6186356;23;20020;-86
2022/07/22 20:23:57;;;;;;;7.25;6.55;;;;;;;;;;6186275;23;20001;-89
2022/07/22 20:26:22;;;;;;;8.90;6.82;;;;;;;;;;6187535;23;20059;-89
2022/07/22 20:28:48;;;;;;;8.20;7.50;;;;;;;;;;6186839;23;20009;-87
2022/07/22 20:31:13;;;;;;;7.82;7.05;;;;;;;;;;6186664;23;20005;-91
2022/07/22 20:33:39;;;;;;;8.65;7.95;;;;;;;;;;6186157;23;20349;-87
2022/07/22 20:36:05;;;;;;;8.30;7.55;;;;;;;;;;6186987;23;20008;-87
2022/07/22 20:38:30;;;;;;;7.55;6.75;;;;;;;;;;6186412;23;20009;-88
2022/07/22 20:40:56;;;;;;;7.15;6.53;;;;;;;;;;6160358;23;20015;-86
2022/07/22 20:43:22;;;;;;;7.78;7.07;;;;;;;;;;6159560;23;20043;-85
2022/07/22 20:45:47;;;;;;;8.32;7.47;;;;;;;;;;6186335;23;20005;-87
2022/07/22 20:48:13;;;;;;;8.25;6.70;;;;;;;;;;6186033;23;20033;-87
2022/07/22 20:50:39;;;;;;;7.18;6.47;;;;;;;;;;6186079;23;20001;-84
2022/07/22 20:53:04;;;;;;;7.93;7.22;;;;;;;;;;6186056;23;20103;-85
2022/07/22 20:55:30;;;;;;;8.57;7.78;;;;;;;;;;6186397;23;20013;-84
2022/07/22 20:57:56;;;;;;;10.48;9.50;;;;;;;;;;6186219;23;20069;-84
2022/07/22 21:00:22;;;;;;;10.82;9.75;;;;;;;;;;6186062;23;20011;-84
2022/07/22 21:02:48;;;;;;;10.95;9.95;;;;;;;;;;6186099;23;20068;-86
2022/07/22 21:05:13;;;;;;;9.73;8.73;;;;;;;;;;6186091;23;20055;-84
2022/07/22 21:07:39;;;;;;;8.20;7.45;;;;;;;;;;6185964;23;20072;-85
2022/07/22 21:10:05;;;;;;;8.20;7.50;;;;;;;;;;6186289;23;20028;-85
2022/07/22 21:12:30;;;;;;;10.65;8.38;;;;;;;;;;6185922;23;20016;-84
2022/07/22 21:14:58;;;;;;;10.07;9.07;;;;;;;;;;6186323;23;20032;-84
2022/07/22 21:17:25;;;;;;;11.98;10.77;;;;;;;;;;6185946;23;20028;-84
2022/07/22 21:19:50;;;;;;;8.45;7.65;;;;;;;;;;6186100;23;20064;-83
2022/07/22 21:22:16;;;;;;;8.15;7.32;;;;;;;;;;6186029;23;20016;-84
2022/07/22 21:24:42;;;;;;;8.48;6.78;;;;;;;;;;6186220;23;20008;-84
2022/07/22 21:27:08;;;;;;;8.07;7.10;;;;;;;;;;6161794;23;20013;-83
2022/07/22 21:29:33;;;;;;;8.88;7.97;;;;;;;;;;6188393;23;20039;-86
2022/07/22 21:31:59;;;;;;;8.23;7.43;;;;;;;;;;6188636;23;20032;-84
2022/07/22 21:34:24;;;;;;;10.43;8.98;;;;;;;;;;6187769;23;20048;-84
2022/07/22 21:36:50;;;;;;;8.65;7.75;;;;;;;;;;6186453;23;20388;-84
2022/07/22 21:39:15;;;;;;;7.97;7.22;;;;;;;;;;6161355;23;20016;-84
2022/07/22 21:41:40;;;;;;;7.43;6.80;;;;;;;;;;6186418;23;20059;-85
2022/07/22 21:44:06;;;;;;;7.18;6.47;;;;;;;;;;6187802;23;20080;-85
2022/07/22 21:46:31;;;;;;;7.88;6.72;;;;;;;;;;6188385;23;20060;-86
2022/07/22 21:48:57;;;;;;;7.00;6.40;;;;;;;;;;6187723;23;20005;-86
2022/07/22 21:51:22;;;;;;;9.93;7.50;;;;;;;;;;6187885;23;20009;-86
2022/07/22 21:53:48;;;;;;;7.32;6.63;;;;;;;;;;6187961;23;20011;-85
2022/07/22 21:58:58;;;;;;;7.38;6.68;;;;;;;;;;6187802;23;20020;-87
2022/07/22 22:01:24;;;;;;;7.93;7.20;;;;;;;;;;6187763;23;20439;-85
2022/07/22 22:03:50;;;;;;;9.70;8.70;;;;;;;;;;6187926;23;19997;-88
2022/07/22 22:06:15;;;;;;;9.90;9.00;;;;;;;;;;6187706;23;20028;-88
2022/07/22 22:08:40;;;;;;;8.43;7.53;;;;;;;;;;6187684;23;20005;-87
